sensor_id;sensor_type;location;lat;lon;timestamp;P1;durP1;ratioP1;P2;durP2;ratioP2
71648;SDS011;59492;45.638;11.714;2023-02-18T00:01:13;21.20;;;18.30;;
71648;SDS011;59492;45.638;11.714;2023-02-18T00:03:41;18.90;;;16.90;;
71648;SDS011;59492;45.638;11.714;2023-02-18T00:06:12;20.10;;;17.20;;
71648;SDS011;59492;45.638;11.714;2023-02-18T00:08:40;21.10;;;17.10;;
71648;SDS011;59492;45.638;11.714;2023-02-18T00:11:06;19.40;;;17.40;;
71648;SDS011;59492;45.638;11.714;2023-02-18T00:13:33;19.70;;;17.40;;
71648;SDS011;59492;45.638;11.714;2023-02-18T00:16:06;19.60;;;17.50;;
71648;SDS011;59492;45.638;11.714;2023-02-18T00:18:34;20.50;;;17.60;;
71648;SDS011;59492;45.638;11.714;2023-02-18T00:21:01;19.00;;;17.00;;
71648;SDS011;59492;45.638;11.714;2023-02-18T00:23:29;18.90;;;16.90;;
71648;SDS011;59492;45.638;11.714;2023-02-18T00:26:03;19.10;;;16.70;;
71648;SDS011;59492;45.638;11.714;2023-02-18T00:28:31;18.70;;;16.70;;
71648;SDS011;59492;45.638;11.714;2023-02-18T00:30:56;18.30;;;16.40;;
71648;SDS011;59492;45.638;11.714;2023-02-18T00:33:22;18.20;;;16.10;;
71648;SDS011;59492;45.638;11.714;2023-02-18T00:35:48;18.10;;;16.20;;
71648;SDS011;59492;45.638;11.714;2023-02-18T00:38:14;17.10;;;15.30;;
71648;SDS011;59492;45.638;11.714;2023-02-18T00:40:40;18.30;;;15.50;;
71648;SDS011;59492;45.638;11.714;2023-02-18T00:43:09;17.50;;;15.40;;
71648;SDS011;59492;45.638;11.714;2023-02-18T00:45:35;17.10;;;15.30;;
71648;SDS011;59492;45.638;11.714;2023-02-18T00:48:03;17.90;;;16.00;;
71648;SDS011;59492;45.638;11.714;2023-02-18T00:50:29;17.30;;;15.10;;
71648;SDS011;59492;45.638;11.714;2023-02-18T00:52:54;17.80;;;15.90;;
71648;SDS011;59492;45.638;11.714;2023-02-18T00:55:20;18.60;;;16.10;;
71648;SDS011;59492;45.638;11.714;2023-02-18T00:57:45;19.50;;;16.40;;
71648;SDS011;59492;45.638;11.714;2023-02-18T01:00:11;18.20;;;16.20;;
71648;SDS011;59492;45.638;11.714;2023-02-18T01:02:37;17.70;;;15.90;;
71648;SDS011;59492;45.638;11.714;2023-02-18T01:05:03;18.20;;;16.30;;
71648;SDS011;59492;45.638;11.714;2023-02-18T01:07:29;19.20;;;16.70;;
71648;SDS011;59492;45.638;11.714;2023-02-18T01:09:54;17.90;;;15.90;;
71648;SDS011;59492;45.638;11.714;2023-02-18T01:12:20;17.50;;;15.50;;
71648;SDS011;59492;45.638;11.714;2023-02-18T01:14:45;18.40;;;15.40;;
71648;SDS011;59492;45.638;11.714;2023-02-18T01:17:11;21.70;;;16.30;;
71648;SDS011;59492;45.638;11.714;2023-02-18T01:19:37;17.10;;;15.20;;
71648;SDS011;59492;45.638;11.714;2023-02-18T01:22:02;18.30;;;15.90;;
71648;SDS011;59492;45.638;11.714;2023-02-18T01:24:28;18.30;;;16.40;;
71648;SDS011;59492;45.638;11.714;2023-02-18T01:26:53;18.90;;;16.30;;
71648;SDS011;59492;45.638;11.714;2023-02-18T01:29:19;18.00;;;16.00;;
71648;SDS011;59492;45.638;11.714;2023-02-18T01:31:44;17.40;;;15.60;;
71648;SDS011;59492;45.638;11.714;2023-02-18T01:34:10;19.90;;;16.80;;
71648;SDS011;59492;45.638;11.714;2023-02-18T01:36:35;18.10;;;16.10;;
71648;SDS011;59492;45.638;11.714;2023-02-18T01:39:01;17.90;;;16.00;;
71648;SDS011;59492;45.638;11.714;2023-02-18T01:41:26;18.00;;;15.90;;
71648;SDS011;59492;45.638;11.714;2023-02-18T01:46:48;17.40;;;15.50;;
71648;SDS011;59492;45.638;11.714;2023-02-18T01:49:15;18.20;;;15.60;;
71648;SDS011;59492;45.638;11.714;2023-02-18T01:51:51;17.00;;;15.30;;
71648;SDS011;59492;45.638;11.714;2023-02-18T01:54:34;16.70;;;14.90;;
71648;SDS011;59492;45.638;11.714;2023-02-18T01:57:08;17.80;;;15.80;;
71648;SDS011;59492;45.638;11.714;2023-02-18T02:02:07;18.20;;;15.50;;
71648;SDS011;59492;45.638;11.714;2023-02-18T02:04:42;17.00;;;15.20;;
71648;SDS011;59492;45.638;11.714;2023-02-18T02:07:10;16.20;;;14.20;;
71648;SDS011;59492;45.638;11.714;2023-02-18T02:09:36;16.40;;;14.70;;
71648;SDS011;59492;45.638;11.714;2023-02-18T02:15:22;15.80;;;13.80;;
71648;SDS011;59492;45.638;11.714;2023-02-18T02:27:50;17.20;;;15.30;;
71648;SDS011;59492;45.638;11.714;2023-02-18T02:31:01;17.30;;;15.50;;
71648;SDS011;59492;45.638;11.714;2023-02-18T02:36:30;17.10;;;15.30;;
71648;SDS011;59492;45.638;11.714;2023-02-18T02:39:21;17.30;;;14.40;;
71648;SDS011;59492;45.638;11.714;2023-02-18T02:42:08;16.50;;;14.80;;
71648;SDS011;59492;45.638;11.714;2023-02-18T02:50:43;16.70;;;14.90;;
71648;SDS011;59492;45.638;11.714;2023-02-18T02:53:26;17.70;;;15.30;;
71648;SDS011;59492;45.638;11.714;2023-02-18T02:55:59;17.60;;;15.20;;
71648;SDS011;59492;45.638;11.714;2023-02-18T02:58:28;17.20;;;14.90;;
71648;SDS011;59492;45.638;11.714;2023-02-18T03:01:06;17.20;;;15.00;;
71648;SDS011;59492;45.638;11.714;2023-02-18T03:06:42;17.30;;;15.50;;
71648;SDS011;59492;45.638;11.714;2023-02-18T03:09:19;16.90;;;14.70;;
71648;SDS011;59492;45.638;11.714;2023-02-18T03:11:53;18.20;;;15.60;;
71648;SDS011;59492;45.638;11.714;2023-02-18T03:15:07;17.10;;;15.20;;
71648;SDS011;59492;45.638;11.714;2023-02-18T03:17:30;15.70;;;14.00;;
71648;SDS011;59492;45.638;11.714;2023-02-18T03:20:22;16.80;;;14.60;;
71648;SDS011;59492;45.638;11.714;2023-02-18T03:22:55;17.10;;;15.30;;
71648;SDS011;59492;45.638;11.714;2023-02-18T03:25:26;17.80;;;15.20;;
71648;SDS011;59492;45.638;11.714;2023-02-18T03:27:57;18.60;;;14.70;;
71648;SDS011;59492;45.638;11.714;2023-02-18T03:30:30;16.40;;;14.70;;
71648;SDS011;59492;45.638;11.714;2023-02-18T03:33:02;15.50;;;13.80;;
71648;SDS011;59492;45.638;11.714;2023-02-18T03:35:30;17.30;;;14.60;;
71648;SDS011;59492;45.638;11.714;2023-02-18T03:37:58;17.80;;;14.80;;
71648;SDS011;59492;45.638;11.714;2023-02-18T03:40:31;18.10;;;15.00;;
71648;SDS011;59492;45.638;11.714;2023-02-18T03:42:59;17.00;;;15.20;;
71648;SDS011;59492;45.638;11.714;2023-02-18T03:45:28;17.10;;;14.90;;
71648;SDS011;59492;45.638;11.714;2023-02-18T03:47:59;17.30;;;14.10;;
71648;SDS011;59492;45.638;11.714;2023-02-18T03:50:25;17.10;;;15.20;;
71648;SDS011;59492;45.638;11.714;2023-02-18T03:52:51;16.80;;;15.00;;
71648;SDS011;59492;45.638;11.714;2023-02-18T03:55:19;16.70;;;14.80;;
71648;SDS011;59492;45.638;11.714;2023-02-18T03:57:45;18.00;;;14.70;;
71648;SDS011;59492;45.638;11.714;2023-02-18T04:00:15;17.50;;;15.50;;
71648;SDS011;59492;45.638;11.714;2023-02-18T04:02:44;17.10;;;15.30;;
71648;SDS011;59492;45.638;11.714;2023-02-18T04:05:12;19.30;;;15.60;;
71648;SDS011;59492;45.638;11.714;2023-02-18T04:07:46;18.40;;;15.20;;
71648;SDS011;59492;45.638;11.714;2023-02-18T04:10:11;16.90;;;15.00;;
71648;SDS011;59492;45.638;11.714;2023-02-18T04:12:40;17.30;;;15.30;;
71648;SDS011;59492;45.638;11.714;2023-02-18T04:15:08;18.70;;;15.50;;
71648;SDS011;59492;45.638;11.714;2023-02-18T04:17:37;17.70;;;15.20;;
71648;SDS011;59492;45.638;11.714;2023-02-18T04:20:07;16.80;;;15.00;;
71648;SDS011;59492;45.638;11.714;2023-02-18T04:22:35;18.20;;;15.30;;
71648;SDS011;59492;45.638;11.714;2023-02-18T04:25:04;18.80;;;15.50;;
71648;SDS011;59492;45.638;11.714;2023-02-18T04:27:35;17.10;;;15.00;;
71648;SDS011;59492;45.638;11.714;2023-02-18T04:30:01;17.50;;;15.20;;
71648;SDS011;59492;45.638;11.714;2023-02-18T04:32:30;17.60;;;15.70;;
71648;SDS011;59492;45.638;11.714;2023-02-18T04:35:00;20.20;;;15.80;;
71648;SDS011;59492;45.638;11.714;2023-02-18T04:37:31;17.70;;;15.40;;
71648;SDS011;59492;45.638;11.714;2023-02-18T04:39:57;17.10;;;15.20;;
71648;SDS011;59492;45.638;11.714;2023-02-18T04:42:23;22.70;;;15.70;;
71648;SDS011;59492;45.638;11.714;2023-02-18T04:44:48;16.10;;;14.30;;
71648;SDS011;59492;45.638;11.714;2023-02-18T04:47:17;15.60;;;13.90;;
71648;SDS011;59492;45.638;11.714;2023-02-18T04:49:51;16.50;;;14.50;;
71648;SDS011;59492;45.638;11.714;2023-02-18T04:52:20;16.80;;;14.80;;
71648;SDS011;59492;45.638;11.714;2023-02-18T04:54:51;19.20;;;14.50;;
71648;SDS011;59492;45.638;11.714;2023-02-18T04:57:17;17.70;;;15.70;;
71648;SDS011;59492;45.638;11.714;2023-02-18T04:59:45;17.30;;;15.00;;
71648;SDS011;59492;45.638;11.714;2023-02-18T05:02:14;16.80;;;15.00;;
71648;SDS011;59492;45.638;11.714;2023-02-18T05:04:40;18.30;;;15.60;;
71648;SDS011;59492;45.638;11.714;2023-02-18T05:07:06;16.70;;;14.90;;
71648;SDS011;59492;45.638;11.714;2023-02-18T05:09:31;16.10;;;14.10;;
71648;SDS011;59492;45.638;11.714;2023-02-18T05:12:00;16.90;;;14.50;;
71648;SDS011;59492;45.638;11.714;2023-02-18T05:14:28;16.80;;;14.50;;
71648;SDS011;59492;45.638;11.714;2023-02-18T05:16:57;18.00;;;15.60;;
71648;SDS011;59492;45.638;11.714;2023-02-18T05:19:22;18.30;;;15.40;;
71648;SDS011;59492;45.638;11.714;2023-02-18T05:21:48;17.00;;;14.70;;
71648;SDS011;59492;45.638;11.714;2023-02-18T05:24:14;17.70;;;15.10;;
71648;SDS011;59492;45.638;11.714;2023-02-18T05:26:40;18.00;;;15.10;;
71648;SDS011;59492;45.638;11.714;2023-02-18T05:29:08;16.90;;;14.90;;
71648;SDS011;59492;45.638;11.714;2023-02-18T05:31:37;16.50;;;14.70;;
71648;SDS011;59492;45.638;11.714;2023-02-18T05:34:05;16.50;;;14.30;;
71648;SDS011;59492;45.638;11.714;2023-02-18T05:36:34;17.30;;;14.30;;
71648;SDS011;59492;45.638;11.714;2023-02-18T05:39:00;17.00;;;15.20;;
71648;SDS011;59492;45.638;11.714;2023-02-18T05:41:28;18.10;;;14.90;;
71648;SDS011;59492;45.638;11.714;2023-02-18T05:43:59;16.40;;;14.50;;
71648;SDS011;59492;45.638;11.714;2023-02-18T05:46:49;17.50;;;15.20;;
71648;SDS011;59492;45.638;11.714;2023-02-18T05:49:24;16.20;;;14.30;;
71648;SDS011;59492;45.638;11.714;2023-02-18T05:51:53;17.00;;;14.40;;
71648;SDS011;59492;45.638;11.714;2023-02-18T05:54:24;16.30;;;14.40;;
71648;SDS011;59492;45.638;11.714;2023-02-18T05:56:55;18.60;;;14.90;;
71648;SDS011;59492;45.638;11.714;2023-02-18T05:59:21;17.30;;;15.20;;
71648;SDS011;59492;45.638;11.714;2023-02-18T06:01:49;16.30;;;13.60;;
71648;SDS011;59492;45.638;11.714;2023-02-18T06:04:18;15.60;;;14.00;;
71648;SDS011;59492;45.638;11.714;2023-02-18T06:06:44;16.10;;;13.70;;
71648;SDS011;59492;45.638;11.714;2023-02-18T06:09:12;16.80;;;14.00;;
71648;SDS011;59492;45.638;11.714;2023-02-18T06:11:41;16.50;;;14.40;;
71648;SDS011;59492;45.638;11.714;2023-02-18T06:14:09;16.70;;;14.50;;
71648;SDS011;59492;45.638;11.714;2023-02-18T06:16:38;16.00;;;14.30;;
71648;SDS011;59492;45.638;11.714;2023-02-18T06:19:07;17.50;;;14.90;;
71648;SDS011;59492;45.638;11.714;2023-02-18T06:21:33;15.80;;;13.80;;
71648;SDS011;59492;45.638;11.714;2023-02-18T06:23:58;17.20;;;14.70;;
71648;SDS011;59492;45.638;11.714;2023-02-18T06:26:24;16.10;;;14.30;;
71648;SDS011;59492;45.638;11.714;2023-02-18T06:28:50;16.80;;;15.00;;
71648;SDS011;59492;45.638;11.714;2023-02-18T06:31:19;19.00;;;15.10;;
71648;SDS011;59492;45.638;11.714;2023-02-18T06:33:45;16.40;;;14.40;;
71648;SDS011;59492;45.638;11.714;2023-02-18T06:36:14;15.10;;;13.40;;
71648;SDS011;59492;45.638;11.714;2023-02-18T06:38:40;16.60;;;14.70;;
71648;SDS011;59492;45.638;11.714;2023-02-18T06:41:07;16.80;;;14.50;;
71648;SDS011;59492;45.638;11.714;2023-02-18T06:43:33;15.50;;;13.90;;
71648;SDS011;59492;45.638;11.714;2023-02-18T06:45:59;16.60;;;14.20;;
71648;SDS011;59492;45.638;11.714;2023-02-18T06:48:25;17.90;;;14.80;;
71648;SDS011;59492;45.638;11.714;2023-02-18T06:50:56;16.40;;;14.20;;
71648;SDS011;59492;45.638;11.714;2023-02-18T06:53:27;16.90;;;14.80;;
71648;SDS011;59492;45.638;11.714;2023-02-18T06:55:58;17.20;;;14.40;;
71648;SDS011;59492;45.638;11.714;2023-02-18T07:00:54;16.10;;;13.10;;
71648;SDS011;59492;45.638;11.714;2023-02-18T07:03:20;15.40;;;13.80;;
71648;SDS011;59492;45.638;11.714;2023-02-18T07:05:54;18.80;;;14.10;;
71648;SDS011;59492;45.638;11.714;2023-02-18T07:08:25;18.00;;;15.20;;
71648;SDS011;59492;45.638;11.714;2023-02-18T07:10:55;16.10;;;14.00;;
71648;SDS011;59492;45.638;11.714;2023-02-18T07:13:27;16.20;;;14.30;;
71648;SDS011;59492;45.638;11.714;2023-02-18T07:15:57;18.00;;;14.70;;
71648;SDS011;59492;45.638;11.714;2023-02-18T07:18:33;16.20;;;14.10;;
71648;SDS011;59492;45.638;11.714;2023-02-18T07:21:03;17.20;;;14.60;;
71648;SDS011;59492;45.638;11.714;2023-02-18T07:23:32;14.20;;;12.70;;
71648;SDS011;59492;45.638;11.714;2023-02-18T07:26:05;16.80;;;12.80;;
71648;SDS011;59492;45.638;11.714;2023-02-18T07:28:37;15.60;;;13.20;;
71648;SDS011;59492;45.638;11.714;2023-02-18T07:31:05;16.50;;;12.50;;
71648;SDS011;59492;45.638;11.714;2023-02-18T07:33:31;15.60;;;13.10;;
71648;SDS011;59492;45.638;11.714;2023-02-18T07:35:58;17.10;;;13.20;;
71648;SDS011;59492;45.638;11.714;2023-02-18T07:38:29;17.50;;;13.10;;
71648;SDS011;59492;45.638;11.714;2023-02-18T07:40:56;17.40;;;13.60;;
71648;SDS011;59492;45.638;11.714;2023-02-18T07:43:27;16.90;;;13.90;;
71648;SDS011;59492;45.638;11.714;2023-02-18T07:45:53;22.40;;;14.20;;
71648;SDS011;59492;45.638;11.714;2023-02-18T07:48:23;17.20;;;13.80;;
71648;SDS011;59492;45.638;11.714;2023-02-18T07:50:52;17.80;;;13.80;;
71648;SDS011;59492;45.638;11.714;2023-02-18T07:53:38;18.10;;;14.40;;
71648;SDS011;59492;45.638;11.714;2023-02-18T07:56:07;18.30;;;14.80;;
71648;SDS011;59492;45.638;11.714;2023-02-18T07:58:36;22.10;;;15.40;;
71648;SDS011;59492;45.638;11.714;2023-02-18T08:01:04;26.60;;;16.20;;
71648;SDS011;59492;45.638;11.714;2023-02-18T08:03:35;18.60;;;15.40;;
71648;SDS011;59492;45.638;11.714;2023-02-18T08:06:01;19.70;;;14.80;;
71648;SDS011;59492;45.638;11.714;2023-02-18T08:08:29;20.60;;;14.80;;
71648;SDS011;59492;45.638;11.714;2023-02-18T08:10:57;22.90;;;14.60;;
71648;SDS011;59492;45.638;11.714;2023-02-18T08:13:28;17.60;;;13.90;;
71648;SDS011;59492;45.638;11.714;2023-02-18T08:15:57;18.40;;;14.20;;
71648;SDS011;59492;45.638;11.714;2023-02-18T08:18:23;20.30;;;15.40;;
71648;SDS011;59492;45.638;11.714;2023-02-18T08:20:50;21.30;;;16.10;;
71648;SDS011;59492;45.638;11.714;2023-02-18T08:23:20;23.50;;;17.30;;
71648;SDS011;59492;45.638;11.714;2023-02-18T08:25:50;19.60;;;16.40;;
71648;SDS011;59492;45.638;11.714;2023-02-18T08:28:18;28.50;;;16.20;;
71648;SDS011;59492;45.638;11.714;2023-02-18T08:30:47;21.70;;;16.60;;
71648;SDS011;59492;45.638;11.714;2023-02-18T08:33:14;22.50;;;16.60;;
71648;SDS011;59492;45.638;11.714;2023-02-18T08:35:41;23.00;;;17.10;;
71648;SDS011;59492;45.638;11.714;2023-02-18T08:38:07;20.80;;;16.60;;
71648;SDS011;59492;45.638;11.714;2023-02-18T08:40:39;21.30;;;16.70;;
71648;SDS011;59492;45.638;11.714;2023-02-18T08:43:07;21.40;;;16.80;;
71648;SDS011;59492;45.638;11.714;2023-02-18T08:45:33;24.30;;;16.40;;
71648;SDS011;59492;45.638;11.714;2023-02-18T08:48:02;24.00;;;15.90;;
71648;SDS011;59492;45.638;11.714;2023-02-18T08:50:31;22.30;;;16.90;;
71648;SDS011;59492;45.638;11.714;2023-02-18T08:52:57;22.20;;;16.20;;
71648;SDS011;59492;45.638;11.714;2023-02-18T08:55:29;21.10;;;16.60;;
71648;SDS011;59492;45.638;11.714;2023-02-18T08:57:56;21.10;;;16.40;;
71648;SDS011;59492;45.638;11.714;2023-02-18T09:00:27;22.10;;;16.20;;
71648;SDS011;59492;45.638;11.714;2023-02-18T09:02:53;20.20;;;15.80;;
71648;SDS011;59492;45.638;11.714;2023-02-18T09:05:19;21.90;;;16.00;;
71648;SDS011;59492;45.638;11.714;2023-02-18T09:07:47;22.40;;;15.60;;
71648;SDS011;59492;45.638;11.714;2023-02-18T09:10:18;20.50;;;15.90;;
71648;SDS011;59492;45.638;11.714;2023-02-18T09:12:43;20.40;;;15.40;;
71648;SDS011;59492;45.638;11.714;2023-02-18T09:15:14;20.10;;;15.60;;
71648;SDS011;59492;45.638;11.714;2023-02-18T09:17:40;21.50;;;15.90;;
71648;SDS011;59492;45.638;11.714;2023-02-18T09:20:06;22.70;;;16.30;;
71648;SDS011;59492;45.638;11.714;2023-02-18T09:22:35;19.00;;;15.20;;
71648;SDS011;59492;45.638;11.714;2023-02-18T09:25:00;19.30;;;15.50;;
71648;SDS011;59492;45.638;11.714;2023-02-18T09:27:27;19.90;;;16.50;;
71648;SDS011;59492;45.638;11.714;2023-02-18T09:29:52;21.10;;;17.20;;
71648;SDS011;59492;45.638;11.714;2023-02-18T09:32:18;24.20;;;16.90;;
71648;SDS011;59492;45.638;11.714;2023-02-18T09:34:44;23.80;;;17.60;;
71648;SDS011;59492;45.638;11.714;2023-02-18T09:37:17;27.70;;;20.00;;
71648;SDS011;59492;45.638;11.714;2023-02-18T09:39:43;25.40;;;18.50;;
71648;SDS011;59492;45.638;11.714;2023-02-18T09:42:12;24.00;;;18.80;;
71648;SDS011;59492;45.638;11.714;2023-02-18T09:47:18;28.70;;;22.20;;
71648;SDS011;59492;45.638;11.714;2023-02-18T09:49:50;31.90;;;24.10;;
71648;SDS011;59492;45.638;11.714;2023-02-18T09:52:23;31.50;;;23.60;;
71648;SDS011;59492;45.638;11.714;2023-02-18T09:54:54;29.30;;;22.90;;
71648;SDS011;59492;45.638;11.714;2023-02-18T09:59:55;32.40;;;23.40;;
71648;SDS011;59492;45.638;11.714;2023-02-18T10:04:50;32.30;;;24.30;;
71648;SDS011;59492;45.638;11.714;2023-02-18T10:07:20;54.60;;;37.70;;
71648;SDS011;59492;45.638;11.714;2023-02-18T10:09:54;54.70;;;40.20;;
71648;SDS011;59492;45.638;11.714;2023-02-18T10:12:25;56.30;;;42.00;;
71648;SDS011;59492;45.638;11.714;2023-02-18T10:14:52;60.10;;;41.90;;
71648;SDS011;59492;45.638;11.714;2023-02-18T10:17:26;52.30;;;39.90;;
71648;SDS011;59492;45.638;11.714;2023-02-18T10:19:55;53.70;;;41.30;;
71648;SDS011;59492;45.638;11.714;2023-02-18T10:22:25;58.40;;;42.70;;
71648;SDS011;59492;45.638;11.714;2023-02-18T10:25:00;53.70;;;40.70;;
71648;SDS011;59492;45.638;11.714;2023-02-18T10:27:30;54.10;;;40.80;;
71648;SDS011;59492;45.638;11.714;2023-02-18T10:30:08;54.10;;;40.80;;
71648;SDS011;59492;45.638;11.714;2023-02-18T10:32:45;52.50;;;39.60;;
71648;SDS011;59492;45.638;11.714;2023-02-18T10:35:29;56.70;;;38.60;;
71648;SDS011;59492;45.638;11.714;2023-02-18T10:38:10;52.90;;;37.20;;
71648;SDS011;59492;45.638;11.714;2023-02-18T10:43:31;53.70;;;36.90;;
71648;SDS011;59492;45.638;11.714;2023-02-18T10:46:20;50.90;;;37.60;;
71648;SDS011;59492;45.638;11.714;2023-02-18T10:51:57;51.50;;;38.70;;
71648;SDS011;59492;45.638;11.714;2023-02-18T10:54:26;53.10;;;39.60;;
71648;SDS011;59492;45.638;11.714;2023-02-18T10:57:20;55.50;;;37.90;;
71648;SDS011;59492;45.638;11.714;2023-02-18T10:59:54;55.30;;;38.10;;
71648;SDS011;59492;45.638;11.714;2023-02-18T11:02:27;131.20;;;79.30;;
71648;SDS011;59492;45.638;11.714;2023-02-18T11:04:57;135.80;;;83.30;;
71648;SDS011;59492;45.638;11.714;2023-02-18T11:07:28;154.00;;;91.90;;
71648;SDS011;59492;45.638;11.714;2023-02-18T11:09:58;147.00;;;86.20;;
71648;SDS011;59492;45.638;11.714;2023-02-18T11:12:40;144.10;;;85.00;;
71648;SDS011;59492;45.638;11.714;2023-02-18T11:17:40;131.00;;;76.90;;
71648;SDS011;59492;45.638;11.714;2023-02-18T11:23:13;121.90;;;74.50;;
71648;SDS011;59492;45.638;11.714;2023-02-18T11:25:51;130.70;;;76.50;;
71648;SDS011;59492;45.638;11.714;2023-02-18T11:30:46;129.40;;;79.30;;
71648;SDS011;59492;45.638;11.714;2023-02-18T11:33:17;119.70;;;75.50;;
71648;SDS011;59492;45.638;11.714;2023-02-18T11:35:52;129.30;;;78.80;;
71648;SDS011;59492;45.638;11.714;2023-02-18T11:38:36;120.50;;;74.80;;
71648;SDS011;59492;45.638;11.714;2023-02-18T11:41:15;122.60;;;75.40;;
71648;SDS011;59492;45.638;11.714;2023-02-18T11:43:47;116.10;;;74.20;;
71648;SDS011;59492;45.638;11.714;2023-02-18T11:46:22;120.60;;;74.70;;
71648;SDS011;59492;45.638;11.714;2023-02-18T11:48:54;112.90;;;73.70;;
71648;SDS011;59492;45.638;11.714;2023-02-18T11:51:35;109.00;;;67.60;;
71648;SDS011;59492;45.638;11.714;2023-02-18T11:54:07;102.90;;;65.70;;
71648;SDS011;59492;45.638;11.714;2023-02-18T11:59:42;105.00;;;67.40;;
71648;SDS011;59492;45.638;11.714;2023-02-18T12:04:44;109.70;;;68.80;;
71648;SDS011;59492;45.638;11.714;2023-02-18T12:09:57;106.70;;;67.30;;
71648;SDS011;59492;45.638;11.714;2023-02-18T12:12:28;104.40;;;65.60;;
71648;SDS011;59492;45.638;11.714;2023-02-18T12:15:00;98.70;;;66.50;;
71648;SDS011;59492;45.638;11.714;2023-02-18T12:17:30;108.90;;;67.40;;
71648;SDS011;59492;45.638;11.714;2023-02-18T12:26:24;95.20;;;63.60;;
71648;SDS011;59492;45.638;11.714;2023-02-18T12:37:53;92.20;;;59.00;;
71648;SDS011;59492;45.638;11.714;2023-02-18T12:54:31;80.60;;;54.80;;
71648;SDS011;59492;45.638;11.714;2023-02-18T12:57:20;82.80;;;54.60;;
71648;SDS011;59492;45.638;11.714;2023-02-18T13:14:29;78.50;;;54.40;;
71648;SDS011;59492;45.638;11.714;2023-02-18T13:16:58;71.00;;;49.40;;
71648;SDS011;59492;45.638;11.714;2023-02-18T13:19:28;71.20;;;48.60;;
71648;SDS011;59492;45.638;11.714;2023-02-18T13:22:10;71.90;;;48.60;;
71648;SDS011;59492;45.638;11.714;2023-02-18T13:24:53;66.70;;;49.50;;
71648;SDS011;59492;45.638;11.714;2023-02-18T13:27:34;71.40;;;49.90;;
71648;SDS011;59492;45.638;11.714;2023-02-18T13:41:37;64.20;;;45.80;;
71648;SDS011;59492;45.638;11.714;2023-02-18T13:45:01;69.20;;;47.60;;
71648;SDS011;59492;45.638;11.714;2023-02-18T13:47:44;62.20;;;45.30;;
71648;SDS011;59492;45.638;11.714;2023-02-18T13:52:54;65.90;;;47.20;;
71648;SDS011;59492;45.638;11.714;2023-02-18T13:55:25;62.70;;;45.50;;
71648;SDS011;59492;45.638;11.714;2023-02-18T13:57:59;64.80;;;46.10;;
71648;SDS011;59492;45.638;11.714;2023-02-18T14:00:36;64.70;;;46.70;;
71648;SDS011;59492;45.638;11.714;2023-02-18T14:06:00;64.20;;;45.60;;
71648;SDS011;59492;45.638;11.714;2023-02-18T14:08:34;53.40;;;40.60;;
71648;SDS011;59492;45.638;11.714;2023-02-18T14:19:42;58.40;;;42.40;;
71648;SDS011;59492;45.638;11.714;2023-02-18T14:27:40;56.10;;;41.30;;
71648;SDS011;59492;45.638;11.714;2023-02-18T14:32:55;54.90;;;41.00;;
71648;SDS011;59492;45.638;11.714;2023-02-18T14:40:43;50.90;;;39.50;;
71648;SDS011;59492;45.638;11.714;2023-02-18T14:43:26;54.00;;;40.70;;
71648;SDS011;59492;45.638;11.714;2023-02-18T14:46:13;52.00;;;38.70;;
71648;SDS011;59492;45.638;11.714;2023-02-18T14:49:12;51.90;;;39.10;;
71648;SDS011;59492;45.638;11.714;2023-02-18T14:51:57;52.90;;;39.80;;
71648;SDS011;59492;45.638;11.714;2023-02-18T14:54:26;55.50;;;40.70;;
71648;SDS011;59492;45.638;11.714;2023-02-18T14:56:56;51.30;;;36.50;;
71648;SDS011;59492;45.638;11.714;2023-02-18T14:59:30;48.70;;;36.60;;
71648;SDS011;59492;45.638;11.714;2023-02-18T15:02:00;54.30;;;37.80;;
71648;SDS011;59492;45.638;11.714;2023-02-18T15:04:38;46.00;;;35.50;;
71648;SDS011;59492;45.638;11.714;2023-02-18T15:07:10;49.30;;;36.80;;
71648;SDS011;59492;45.638;11.714;2023-02-18T15:09:43;54.60;;;38.40;;
71648;SDS011;59492;45.638;11.714;2023-02-18T15:12:13;53.70;;;38.70;;
71648;SDS011;59492;45.638;11.714;2023-02-18T15:14:43;55.00;;;38.90;;
71648;SDS011;59492;45.638;11.714;2023-02-18T15:17:15;50.80;;;37.80;;
71648;SDS011;59492;45.638;11.714;2023-02-18T15:20:01;63.70;;;40.10;;
71648;SDS011;59492;45.638;11.714;2023-02-18T15:22:30;52.20;;;38.40;;
71648;SDS011;59492;45.638;11.714;2023-02-18T15:24:58;49.30;;;39.00;;
71648;SDS011;59492;45.638;11.714;2023-02-18T15:27:27;55.30;;;39.30;;
71648;SDS011;59492;45.638;11.714;2023-02-18T15:32:44;51.30;;;38.30;;
71648;SDS011;59492;45.638;11.714;2023-02-18T15:37:45;52.50;;;36.50;;
71648;SDS011;59492;45.638;11.714;2023-02-18T15:40:15;52.50;;;38.00;;
71648;SDS011;59492;45.638;11.714;2023-02-18T15:42:41;51.00;;;34.80;;
71648;SDS011;59492;45.638;11.714;2023-02-18T15:47:45;54.40;;;36.10;;
71648;SDS011;59492;45.638;11.714;2023-02-18T15:50:17;47.40;;;35.60;;
71648;SDS011;59492;45.638;11.714;2023-02-18T15:52:49;48.80;;;36.40;;
71648;SDS011;59492;45.638;11.714;2023-02-18T15:55:25;48.80;;;36.40;;
71648;SDS011;59492;45.638;11.714;2023-02-18T15:57:56;47.00;;;36.40;;
71648;SDS011;59492;45.638;11.714;2023-02-18T16:03:02;49.70;;;37.20;;
71648;SDS011;59492;45.638;11.714;2023-02-18T16:05:35;50.90;;;37.30;;
71648;SDS011;59492;45.638;11.714;2023-02-18T16:08:09;48.50;;;37.00;;
71648;SDS011;59492;45.638;11.714;2023-02-18T16:13:10;47.70;;;35.30;;
71648;SDS011;59492;45.638;11.714;2023-02-18T16:15:40;50.90;;;36.40;;
71648;SDS011;59492;45.638;11.714;2023-02-18T16:18:29;49.80;;;36.50;;
71648;SDS011;59492;45.638;11.714;2023-02-18T16:21:01;46.40;;;34.30;;
71648;SDS011;59492;45.638;11.714;2023-02-18T16:23:43;46.90;;;35.00;;
71648;SDS011;59492;45.638;11.714;2023-02-18T16:26:19;40.30;;;32.40;;
71648;SDS011;59492;45.638;11.714;2023-02-18T16:28:49;45.80;;;33.50;;
71648;SDS011;59492;45.638;11.714;2023-02-18T16:31:17;41.90;;;32.80;;
71648;SDS011;59492;45.638;11.714;2023-02-18T16:33:44;44.40;;;33.60;;
71648;SDS011;59492;45.638;11.714;2023-02-18T16:36:18;45.40;;;33.70;;
71648;SDS011;59492;45.638;11.714;2023-02-18T16:38:46;42.60;;;34.10;;
71648;SDS011;59492;45.638;11.714;2023-02-18T16:41:13;50.00;;;34.60;;
71648;SDS011;59492;45.638;11.714;2023-02-18T16:43:38;44.70;;;33.90;;
71648;SDS011;59492;45.638;11.714;2023-02-18T16:46:23;44.40;;;33.50;;
71648;SDS011;59492;45.638;11.714;2023-02-18T16:48:50;44.10;;;33.30;;
71648;SDS011;59492;45.638;11.714;2023-02-18T16:51:21;44.90;;;33.70;;
71648;SDS011;59492;45.638;11.714;2023-02-18T16:53:49;44.70;;;33.90;;
71648;SDS011;59492;45.638;11.714;2023-02-18T16:56:18;42.30;;;32.60;;
71648;SDS011;59492;45.638;11.714;2023-02-18T16:58:46;43.10;;;33.10;;
71648;SDS011;59492;45.638;11.714;2023-02-18T17:01:16;44.20;;;32.70;;
71648;SDS011;59492;45.638;11.714;2023-02-18T17:03:51;44.00;;;34.00;;
71648;SDS011;59492;45.638;11.714;2023-02-18T17:06:18;38.90;;;31.10;;
71648;SDS011;59492;45.638;11.714;2023-02-18T17:08:43;40.70;;;31.00;;